Pagrindinis puslapis
METAR-TAF:

METAR-TAF

Oro uostai :

Nevşehir, Turkija

platuma: 38-46-12N, ilguma: 034-32-30E, Aukštis: 945 m

Dabartinis oras

Ataskaita buvo paskelbta 48 minutes, ne 19:50 UTC
Ramus vėjas
Temperatūra 5°C
Drėgmė 87%
Slėgis 1023 hPa
Matomumas 10 km arba daugiau
Išsisklaidę debesys ne aukštis 4000 ft

METAR: LTAZ 151950Z 00000KT 9999 SCT040 05/03 Q1023 RMK RWY29 21002KT

Laikas: 23:38 (20:38 UTC)

Prognozė

Ataskaita buvo paskelbta 3 valandos ir 58 minutes, ne 16:40 UTC
Prognozė galioja nuo 15 metu 18 UTC su 16 metu 18 UTC
Vėjas 2 kt nuo kintamojo kryptimis
Matomumas 10 km arba daugiau
Išsisklaidę debesys ne aukštis 3500 ft
Tapsmas
nuo 16 metu 00 UTC su 16 metu 03 UTC
Išsisklaidę debesys ne aukštis 1000 ft
Su prošvaistėmis ne aukštis 2500 ft
Tapsmas
nuo 16 metu 08 UTC su 16 metu 11 UTC
Išsisklaidę debesys ne aukštis 3500 ft

TAF: LTAZ 151640Z 1518/1618 VRB02KT 9999 SCT035 BECMG 1600/1603 SCT010 BKN025 BECMG 1608/1611 SCT035

Orai ataskaitas ir orų prognozės (METAR, TAF).

turimą stotys yra geltonos ir raudonos taškus žemėlapyje.

Perkelti pele per norėdami pamatyti stoties vardą.

Tada spustelėkite, norėdami matyti oro stebėjimo ir prognozės.

Norėdami pakeisti žemėlapį: spustelėkite ant žalios mygtukų su juodo kryžiaus žemyn,; žalią mygtuką su brūkšneliu, jei norite nutolinti; arba žalių rodyklių gretimoms žemėlapius.


METAR-TAF: